Time;durP1;ratioP1;P1;durP2;ratioP2;P2;SDS_P1;SDS_P2;PMS_P1;PMS_P2;Temp;Humidity;BMP_temperature;BMP_pressure;BME280_temperature;BME280_humidity;BME280_pressure;Samples;Min_cycle;Max_cycle;Signal;HPM_P1;HPM_P2
2022/04/16 17:50:14;;;;;;;10.93;7.10;;;;;;;;;;8166356;27;27778;-65
2022/04/16 17:54:14;;;;;;;11.85;7.75;;;;;;;;;;8290674;28;27807;-56
2022/04/16 17:58:14;;;;;;;11.13;8.05;;;;;;;;;;8312114;28;27965;-59
2022/04/16 18:02:14;;;;;;;9.25;6.82;;;;;;;;;;8304713;28;28171;-60
2022/04/16 18:06:15;;;;;;;10.50;8.23;;;;;;;;;;8312080;28;28303;-58
2022/04/16 18:10:16;;;;;;;10.07;7.72;;;;;;;;;;8302852;28;28657;-59
2022/04/16 18:14:17;;;;;;;11.18;7.90;;;;;;;;;;8312864;28;27981;-58
2022/04/16 18:18:18;;;;;;;11.90;7.18;;;;;;;;;;8311772;28;27609;-59
2022/04/16 18:22:18;;;;;;;12.38;7.55;;;;;;;;;;8303722;28;27830;-59
2022/04/16 18:26:18;;;;;;;10.73;8.05;;;;;;;;;;8312265;28;28528;-63
2022/04/16 18:30:19;;;;;;;14.37;7.30;;;;;;;;;;8235249;28;114093;-61
2022/04/16 18:34:19;;;;;;;10.85;7.45;;;;;;;;;;8232419;27;27712;-62
2022/04/16 18:38:19;;;;;;;10.45;7.40;;;;;;;;;;8388356;27;28046;-63
2022/04/16 18:42:20;;;;;;;9.00;7.07;;;;;;;;;;8371640;28;28017;-60
2022/04/16 18:46:20;;;;;;;9.40;7.50;;;;;;;;;;8374413;28;28190;-58
2022/04/16 18:50:20;;;;;;;9.75;7.32;;;;;;;;;;8371785;28;28017;-61
2022/04/16 18:54:20;;;;;;;10.98;7.03;;;;;;;;;;8372715;28;28239;-60
2022/04/16 18:58:21;;;;;;;8.88;7.45;;;;;;;;;;8372893;28;28164;-60
2022/04/16 19:06:52;;;;;;;19.37;7.30;;;;;;;;;;8350902;28;27580;-60
2022/04/16 19:10:54;;;;;;;12.90;7.60;;;;;;;;;;8346039;28;27765;-61
2022/04/16 19:14:54;;;;;;;16.58;8.32;;;;;;;;;;8353174;28;27886;-62
2022/04/16 19:18:55;;;;;;;10.02;7.78;;;;;;;;;;8350661;28;28121;-62
2022/04/16 19:23:14;;;;;;;15.85;8.07;;;;;;;;;;8352778;28;27480;-63
2022/04/16 19:27:14;;;;;;;11.82;7.97;;;;;;;;;;8355031;28;28073;-59
2022/04/16 19:31:14;;;;;;;15.40;8.00;;;;;;;;;;8346881;28;27563;-63
2022/04/16 19:35:15;;;;;;;11.23;7.68;;;;;;;;;;8354940;28;27668;-60
2022/04/16 19:39:15;;;;;;;14.13;8.43;;;;;;;;;;8345179;28;27563;-59
2022/04/16 19:43:15;;;;;;;11.10;7.72;;;;;;;;;;8352263;28;27382;-61
2022/04/16 19:47:15;;;;;;;15.67;8.67;;;;;;;;;;8352625;28;27278;-61
2022/04/16 19:51:19;;;;;;;14.82;8.10;;;;;;;;;;8347607;28;28773;-60
2022/04/16 19:55:19;;;;;;;11.60;8.80;;;;;;;;;;8350806;28;27561;-61
2022/04/16 19:59:19;;;;;;;15.35;9.15;;;;;;;;;;8345720;28;27547;-58
2022/04/16 20:03:20;;;;;;;12.60;9.77;;;;;;;;;;8354716;28;28157;-60
2022/04/16 20:07:21;;;;;;;17.85;9.52;;;;;;;;;;8353200;28;27590;-59
2022/04/16 20:11:21;;;;;;;12.80;10.35;;;;;;;;;;8346619;28;27522;-59
2022/04/16 20:15:26;;;;;;;13.50;10.88;;;;;;;;;;8353674;28;28669;-57
2022/04/16 20:19:26;;;;;;;16.35;10.65;;;;;;;;;;8349997;28;27656;-60
2022/04/16 20:23:26;;;;;;;20.02;10.93;;;;;;;;;;8354046;28;27630;-58
2022/04/16 20:27:28;;;;;;;23.13;11.48;;;;;;;;;;8351586;28;27902;-60
2022/04/16 20:31:29;;;;;;;15.07;11.30;;;;;;;;;;8348459;28;28108;-60
2022/04/16 20:35:29;;;;;;;17.13;12.37;;;;;;;;;;8352787;28;27788;-61
2022/04/16 20:45:18;;;;;;;15.10;11.93;;;;;;;;;;8346845;28;28237;-61
2022/04/16 20:48:10;;;;;;;13.75;11.27;;;;;;;;;;8351863;28;27998;-60
2022/04/16 20:56:31;;;;;;;15.73;11.53;;;;;;;;;;8354337;28;27758;-61
2022/04/16 21:00:32;;;;;;;41.53;13.27;;;;;;;;;;8347792;28;27834;-57
2022/04/16 21:04:33;;;;;;;18.70;12.80;;;;;;;;;;8354800;28;27875;-56
2022/04/16 21:08:33;;;;;;;20.10;13.10;;;;;;;;;;8351263;28;28203;-59
2022/04/16 21:12:33;;;;;;;13.80;11.10;;;;;;;;;;8345851;28;27857;-60
2022/04/16 21:16:33;;;;;;;17.10;13.10;;;;;;;;;;8356940;28;27655;-59
2022/04/16 21:20:34;;;;;;;15.55;12.65;;;;;;;;;;8345517;28;27695;-60
2022/04/16 21:24:34;;;;;;;16.57;12.83;;;;;;;;;;8352127;28;28243;-60
2022/04/16 21:28:34;;;;;;;17.42;13.63;;;;;;;;;;8346664;28;27524;-63
2022/04/16 21:32:35;;;;;;;19.17;14.43;;;;;;;;;;8342430;28;28316;-57
2022/04/16 21:36:35;;;;;;;19.20;15.05;;;;;;;;;;8352841;28;27645;-58
2022/04/16 21:40:36;;;;;;;20.97;14.63;;;;;;;;;;8348655;28;27724;-60
2022/04/16 21:44:36;;;;;;;23.75;15.27;;;;;;;;;;8349038;28;28245;-59
2022/04/16 21:48:36;;;;;;;20.90;14.75;;;;;;;;;;8363115;28;27751;-61
2022/04/16 21:52:36;;;;;;;23.35;15.20;;;;;;;;;;8345487;28;27909;-58
2022/04/16 21:56:37;;;;;;;23.40;16.10;;;;;;;;;;8349792;28;27937;-59
2022/04/16 22:00:37;;;;;;;23.17;17.25;;;;;;;;;;8341529;28;27868;-58
2022/04/16 22:04:37;;;;;;;21.63;16.58;;;;;;;;;;8351669;28;28269;-60
2022/04/16 22:08:38;;;;;;;23.33;18.10;;;;;;;;;;8349965;28;27986;-59
2022/04/16 22:12:38;;;;;;;25.27;18.67;;;;;;;;;;8343361;28;27350;-62
2022/04/16 22:16:39;;;;;;;23.38;18.30;;;;;;;;;;8349923;28;27544;-60
2022/04/16 22:20:39;;;;;;;24.90;17.75;;;;;;;;;;8347996;28;27721;-59
2022/04/16 22:29:16;;;;;;;30.77;19.65;;;;;;;;;;8341626;28;27555;-57
2022/04/16 22:33:38;;;;;;;22.15;17.85;;;;;;;;;;8351474;28;27682;-58
2022/04/16 22:41:57;;;;;;;31.50;22.08;;;;;;;;;;8350493;28;28132;-60
2022/04/16 22:45:57;;;;;;;26.55;19.95;;;;;;;;;;8355916;28;27904;-60
2022/04/16 22:49:58;;;;;;;29.70;21.63;;;;;;;;;;8346352;28;28308;-62
2022/04/16 22:53:58;;;;;;;26.17;19.93;;;;;;;;;;8354305;28;27523;-58
2022/04/16 22:57:58;;;;;;;28.35;23.60;;;;;;;;;;8354515;28;28762;-58
2022/04/16 23:01:59;;;;;;;34.25;25.13;;;;;;;;;;8348728;28;27570;-60
2022/04/16 23:06:03;;;;;;;38.17;28.20;;;;;;;;;;8352953;28;28053;-57
2022/04/16 23:10:03;;;;;;;39.22;30.20;;;;;;;;;;8347181;28;27882;-58
2022/04/16 23:14:03;;;;;;;37.30;28.47;;;;;;;;;;8353668;28;28260;-59
2022/04/16 23:18:03;;;;;;;49.63;37.90;;;;;;;;;;8350816;28;28468;-58
2022/04/16 23:22:04;;;;;;;59.63;36.45;;;;;;;;;;8348582;28;27712;-56
2022/04/16 23:26:04;;;;;;;54.28;38.92;;;;;;;;;;8353495;28;27671;-58
2022/04/16 23:30:05;;;;;;;53.90;41.17;;;;;;;;;;8349066;28;27555;-59
2022/04/16 23:34:05;;;;;;;56.83;45.63;;;;;;;;;;8354546;28;27311;-59
2022/04/16 23:38:05;;;;;;;58.65;45.47;;;;;;;;;;8355845;28;27825;-58
2022/04/16 23:42:05;;;;;;;55.42;43.40;;;;;;;;;;8350202;28;27563;-55
2022/04/16 23:50:25;;;;;;;64.05;47.03;;;;;;;;;;8351388;28;28302;-60
2022/04/16 23:54:25;;;;;;;64.05;49.05;;;;;;;;;;8348604;28;27918;-60
2022/04/16 23:58:25;;;;;;;65.83;50.90;;;;;;;;;;8348890;28;28057;-60
